createdAt,value
2023-03-26T00:00:27.194Z,7.72
2023-03-26T00:01:27.174Z,7.67
2023-03-26T00:02:27.235Z,7.70
2023-03-26T00:03:27.161Z,7.60
2023-03-26T00:04:27.159Z,7.58
2023-03-26T00:05:27.203Z,7.58
2023-03-26T00:06:27.111Z,7.54
2023-03-26T00:07:27.094Z,7.66
2023-03-26T00:08:27.074Z,7.61
2023-03-26T00:09:27.130Z,7.67
2023-03-26T00:10:27.064Z,7.58
2023-03-26T00:11:27.050Z,7.60
2023-03-26T00:12:27.017Z,7.57
2023-03-26T00:13:27.041Z,7.67
2023-03-26T00:14:26.996Z,7.51
2023-03-26T00:15:27.034Z,7.47
2023-03-26T00:16:29.984Z,7.57
2023-03-26T00:17:30.007Z,7.45
2023-03-26T00:18:26.950Z,7.48
2023-03-26T00:19:26.931Z,7.50
2023-03-26T00:20:26.918Z,7.43
2023-03-26T00:21:26.940Z,7.40
2023-03-26T00:22:26.920Z,7.38
2023-03-26T00:23:26.893Z,7.40
2023-03-26T00:24:26.864Z,7.48
2023-03-26T00:25:26.854Z,7.39
2023-03-26T00:26:26.851Z,7.43
2023-03-26T00:27:26.833Z,7.32
2023-03-26T00:28:26.846Z,7.42
2023-03-26T00:29:26.808Z,7.38
2023-03-26T00:30:26.815Z,7.31
2023-03-26T00:31:26.779Z,7.25
2023-03-26T00:32:26.838Z,7.38
2023-03-26T00:33:26.776Z,7.35
2023-03-26T00:34:26.752Z,7.40
2023-03-26T00:35:26.755Z,7.29
2023-03-26T00:36:29.720Z,7.25
2023-03-26T00:37:29.715Z,7.20
2023-03-26T00:38:26.729Z,7.25
2023-03-26T00:39:26.678Z,7.29
2023-03-26T00:40:26.670Z,7.28
2023-03-26T00:41:26.746Z,7.23
2023-03-26T00:42:26.651Z,7.23
2023-03-26T00:43:26.688Z,7.23
2023-03-26T00:44:26.602Z,7.23
2023-03-26T00:45:26.608Z,7.36
2023-03-26T00:46:26.697Z,7.23
2023-03-26T00:47:26.603Z,7.20
2023-03-26T00:48:34.498Z,7.25
2023-03-26T00:49:27.595Z,7.25
2023-03-26T00:50:26.525Z,7.23
2023-03-26T00:51:26.574Z,7.21
2023-03-26T00:52:26.494Z,7.28
2023-03-26T00:53:26.495Z,7.40
2023-03-26T00:54:26.487Z,7.32
2023-03-26T00:55:26.490Z,7.28
2023-03-26T00:56:29.487Z,7.23
2023-03-26T00:57:35.504Z,7.24
2023-03-26T00:58:27.427Z,7.38
2023-03-26T00:59:26.404Z,7.36
2023-03-26T01:00:26.433Z,7.24
2023-03-26T01:01:26.444Z,7.25
2023-03-26T01:02:26.393Z,7.25
2023-03-26T01:03:28.377Z,7.25
2023-03-26T01:04:26.441Z,7.25
2023-03-26T01:05:26.365Z,7.33
2023-03-26T01:06:26.381Z,7.23
2023-03-26T01:07:26.319Z,7.28
2023-03-26T01:08:26.314Z,7.28
2023-03-26T01:09:26.307Z,7.33
2023-03-26T01:10:26.249Z,7.21
2023-03-26T01:11:26.232Z,7.24
2023-03-26T01:12:26.241Z,7.24
2023-03-26T01:13:26.234Z,7.33
2023-03-26T01:14:26.234Z,7.20
2023-03-26T01:15:26.179Z,7.25
2023-03-26T01:16:29.206Z,7.29
2023-03-26T01:17:29.175Z,7.20
2023-03-26T01:18:26.134Z,7.25
2023-03-26T01:19:26.132Z,7.25
2023-03-26T01:20:26.138Z,7.18
2023-03-26T01:21:26.103Z,7.21
2023-03-26T01:22:26.126Z,7.18
2023-03-26T01:23:26.072Z,7.17
2023-03-26T01:24:26.070Z,7.21
2023-03-26T01:25:26.046Z,7.32
2023-03-26T01:26:26.037Z,7.23
2023-03-26T01:27:26.166Z,7.21
2023-03-26T01:28:26.001Z,7.20
2023-03-26T01:29:26.056Z,7.25
2023-03-26T01:30:26.007Z,7.17
2023-03-26T01:31:25.963Z,7.25
2023-03-26T01:32:26.009Z,7.17
2023-03-26T01:33:26.029Z,7.18
2023-03-26T01:34:25.948Z,7.23
2023-03-26T01:35:26.008Z,7.25
2023-03-26T01:36:28.936Z,7.18
2023-03-26T01:37:28.898Z,7.18
2023-03-26T01:38:25.899Z,7.20
2023-03-26T01:39:25.854Z,7.18
2023-03-26T01:40:25.848Z,7.17
2023-03-26T01:41:25.854Z,7.15
2023-03-26T01:42:25.817Z,7.20
2023-03-26T01:43:25.843Z,7.17
2023-03-26T01:44:25.811Z,7.29
2023-03-26T01:45:25.777Z,7.24
2023-03-26T01:46:25.860Z,7.17
2023-03-26T01:47:25.837Z,7.18
2023-03-26T01:48:25.736Z,7.17
2023-03-26T01:49:25.727Z,7.14
2023-03-26T01:50:25.726Z,7.18
2023-03-26T01:51:25.706Z,7.24
2023-03-26T01:52:25.708Z,7.23
2023-03-26T01:53:25.718Z,7.10
2023-03-26T01:54:25.656Z,7.24
2023-03-26T01:55:25.638Z,7.23
2023-03-26T01:56:28.629Z,7.10
2023-03-26T01:57:28.610Z,7.21
2023-03-26T01:58:25.618Z,7.14
2023-03-26T01:59:25.609Z,7.17
2023-03-26T02:00:25.574Z,7.17
2023-03-26T02:01:25.579Z,7.18
2023-03-26T02:02:25.684Z,7.14
2023-03-26T02:03:25.650Z,7.11
2023-03-26T02:04:25.565Z,7.10
2023-03-26T02:05:25.506Z,7.10
2023-03-26T02:06:25.499Z,7.18
2023-03-26T02:07:25.495Z,7.13
2023-03-26T02:08:25.470Z,7.15
2023-03-26T02:09:25.459Z,7.14
2023-03-26T02:10:25.461Z,7.15
2023-03-26T02:11:34.760Z,7.11
2023-03-26T02:12:26.427Z,7.13
2023-03-26T02:13:25.401Z,7.07
2023-03-26T02:14:25.417Z,7.11
2023-03-26T02:15:25.415Z,7.13
2023-03-26T02:16:28.405Z,7.10
2023-03-26T02:17:28.368Z,7.14
2023-03-26T02:18:25.329Z,7.17
2023-03-26T02:19:25.328Z,7.06
2023-03-26T02:20:25.301Z,7.11
2023-03-26T02:21:25.318Z,7.18
2023-03-26T02:22:25.276Z,7.15
2023-03-26T02:23:25.279Z,7.06
2023-03-26T02:24:25.245Z,7.06
2023-03-26T02:25:25.248Z,7.05
2023-03-26T02:26:25.246Z,7.10
2023-03-26T02:27:25.222Z,7.02
2023-03-26T02:28:25.192Z,7.05
2023-03-26T02:29:25.181Z,7.13
2023-03-26T02:30:25.186Z,6.99
2023-03-26T02:31:25.217Z,7.05
2023-03-26T02:32:26.768Z,7.14
2023-03-26T02:33:25.145Z,7.06
2023-03-26T02:34:25.126Z,7.00
2023-03-26T02:35:25.227Z,7.03
2023-03-26T02:36:28.493Z,7.13
2023-03-26T02:37:28.103Z,7.03
2023-03-26T02:38:25.064Z,6.99
2023-03-26T02:39:25.074Z,7.03
2023-03-26T02:40:25.048Z,7.00
2023-03-26T02:41:25.098Z,6.95
2023-03-26T02:42:25.017Z,7.13
2023-03-26T02:43:25.002Z,7.03
2023-03-26T02:44:24.982Z,6.99
2023-03-26T02:45:24.975Z,6.99
2023-03-26T02:46:25.041Z,6.95
2023-03-26T02:47:25.003Z,7.06
2023-03-26T02:48:24.927Z,7.05
2023-03-26T02:49:24.913Z,7.03
2023-03-26T02:50:24.906Z,7.02
2023-03-26T02:51:24.897Z,7.02
2023-03-26T02:52:24.870Z,6.99
2023-03-26T02:53:24.915Z,6.96
2023-03-26T02:54:24.845Z,6.92
2023-03-26T02:55:24.837Z,6.97
2023-03-26T02:56:27.813Z,6.97
2023-03-26T02:57:27.854Z,7.00
2023-03-26T02:58:24.787Z,6.99
2023-03-26T02:59:24.842Z,6.99
2023-03-26T03:00:24.764Z,6.99
2023-03-26T03:01:24.791Z,6.97
2023-03-26T03:02:24.861Z,6.97
2023-03-26T03:03:24.766Z,6.97
2023-03-26T03:04:24.726Z,6.96
2023-03-26T03:05:24.751Z,6.95
2023-03-26T03:06:24.693Z,6.95
2023-03-26T03:07:24.675Z,6.95
2023-03-26T03:08:24.683Z,6.92
2023-03-26T03:09:24.673Z,6.95
2023-03-26T03:10:24.629Z,6.92
2023-03-26T03:11:24.894Z,6.95
2023-03-26T03:12:24.603Z,6.93
2023-03-26T03:13:24.708Z,6.93
2023-03-26T03:14:24.666Z,6.89
2023-03-26T03:15:24.565Z,6.82
2023-03-26T03:16:27.676Z,6.84
2023-03-26T03:17:27.627Z,6.79
2023-03-26T03:18:24.533Z,6.79
2023-03-26T03:19:24.520Z,6.81
2023-03-26T03:20:24.516Z,6.82
2023-03-26T03:21:24.478Z,6.87
2023-03-26T03:22:24.522Z,6.84
2023-03-26T03:23:24.465Z,6.82
2023-03-26T03:24:24.449Z,6.85
2023-03-26T03:25:24.430Z,6.92
2023-03-26T03:26:24.434Z,6.75
2023-03-26T03:27:24.409Z,6.81
2023-03-26T03:28:24.428Z,6.78
2023-03-26T03:29:24.376Z,6.81
2023-03-26T03:30:24.353Z,6.77
2023-03-26T03:31:24.354Z,6.75
2023-03-26T03:32:24.392Z,6.74
2023-03-26T03:33:24.334Z,6.77
2023-03-26T03:34:24.362Z,6.74
2023-03-26T03:35:24.324Z,6.67
2023-03-26T03:36:27.271Z,6.81
2023-03-26T03:37:27.278Z,6.72
2023-03-26T03:38:24.250Z,6.79
2023-03-26T03:39:24.227Z,6.77
2023-03-26T03:40:24.256Z,6.77
2023-03-26T03:41:24.213Z,6.77
2023-03-26T03:42:24.188Z,6.74
2023-03-26T03:43:24.192Z,6.72
2023-03-26T03:44:24.168Z,6.67
2023-03-26T03:45:24.151Z,6.63
2023-03-26T03:46:24.243Z,6.64
2023-03-26T03:47:24.115Z,6.64
2023-03-26T03:48:24.153Z,6.62
2023-03-26T03:49:24.090Z,6.60
2023-03-26T03:50:24.079Z,6.66
2023-03-26T03:51:24.064Z,6.57
2023-03-26T03:52:24.052Z,6.57
2023-03-26T03:53:24.036Z,6.60
2023-03-26T03:54:24.048Z,6.64
2023-03-26T03:55:24.041Z,6.64
2023-03-26T03:56:26.994Z,6.56
2023-03-26T03:57:26.983Z,6.57
2023-03-26T03:58:24.013Z,6.62
2023-03-26T03:59:23.949Z,6.60
2023-03-26T04:00:23.941Z,6.60
2023-03-26T04:01:23.934Z,6.70
2023-03-26T04:02:23.980Z,6.62
2023-03-26T04:03:33.556Z,6.57
2023-03-26T04:04:25.002Z,6.60
2023-03-26T04:05:23.881Z,6.56
2023-03-26T04:06:23.854Z,6.54
2023-03-26T04:07:23.841Z,6.56
2023-03-26T04:08:23.837Z,6.72
2023-03-26T04:09:23.823Z,6.72
2023-03-26T04:10:23.844Z,6.70
2023-03-26T04:11:23.789Z,6.70
2023-03-26T04:12:23.774Z,6.69
2023-03-26T04:13:23.779Z,6.67
2023-03-26T04:14:23.748Z,6.64
2023-03-26T04:15:23.745Z,6.67
2023-03-26T04:16:26.807Z,6.66
2023-03-26T04:17:26.795Z,6.67
2023-03-26T04:18:23.708Z,6.64
2023-03-26T04:19:23.687Z,6.63
2023-03-26T04:20:23.673Z,6.62
2023-03-26T04:21:23.657Z,6.51
2023-03-26T04:22:23.697Z,6.54
2023-03-26T04:23:23.628Z,6.48
2023-03-26T04:24:23.619Z,6.49
2023-03-26T04:25:23.602Z,6.48
2023-03-26T04:26:23.590Z,6.56
2023-03-26T04:27:23.571Z,6.54
2023-03-26T04:28:23.617Z,6.51
2023-03-26T04:29:23.550Z,6.51
2023-03-26T04:30:23.540Z,6.44
2023-03-26T04:31:23.529Z,6.44
2023-03-26T04:32:23.539Z,6.44
2023-03-26T04:33:23.491Z,6.44
2023-03-26T04:34:23.544Z,6.44
2023-03-26T04:35:23.516Z,6.46
2023-03-26T04:36:26.447Z,6.48
2023-03-26T04:37:26.458Z,6.48
2023-03-26T04:38:23.428Z,6.42
2023-03-26T04:39:23.411Z,6.49
2023-03-26T04:40:23.475Z,6.44
2023-03-26T04:41:23.383Z,6.45
2023-03-26T04:42:23.363Z,6.46
2023-03-26T04:43:23.355Z,6.51
2023-03-26T04:44:23.358Z,6.56
2023-03-26T04:45:23.371Z,6.42
2023-03-26T04:46:23.360Z,6.45
2023-03-26T04:47:23.346Z,6.52
2023-03-26T04:48:23.301Z,6.48
2023-03-26T04:49:23.275Z,6.51
2023-03-26T04:50:23.256Z,6.49
2023-03-26T04:51:23.272Z,6.45
2023-03-26T04:52:23.242Z,6.57
2023-03-26T04:53:23.242Z,6.54
2023-03-26T04:54:23.210Z,6.48
2023-03-26T04:55:23.203Z,6.44
2023-03-26T04:56:26.200Z,6.44
2023-03-26T04:57:26.214Z,6.44
2023-03-26T04:58:23.166Z,6.54
2023-03-26T04:59:23.146Z,6.49
2023-03-26T05:00:23.129Z,6.51
2023-03-26T05:01:23.182Z,6.49
2023-03-26T05:02:23.092Z,6.54
2023-03-26T05:03:23.080Z,6.49
2023-03-26T05:04:23.168Z,6.42
2023-03-26T05:05:23.057Z,6.52
2023-03-26T05:06:23.080Z,6.46
2023-03-26T05:07:23.035Z,6.42
2023-03-26T05:08:23.025Z,6.42
2023-03-26T05:09:23.005Z,6.36
2023-03-26T05:10:23.021Z,6.31
2023-03-26T05:11:23.004Z,6.48
2023-03-26T05:12:22.998Z,6.46
2023-03-26T05:13:22.959Z,6.48
2023-03-26T05:14:22.934Z,6.46
2023-03-26T05:15:22.919Z,6.48
2023-03-26T05:16:26.057Z,6.45
2023-03-26T05:17:25.974Z,6.45
2023-03-26T05:18:22.899Z,6.45
2023-03-26T05:19:22.884Z,6.31
2023-03-26T05:20:22.870Z,6.35
2023-03-26T05:21:22.849Z,6.33
2023-03-26T05:22:22.865Z,6.33
2023-03-26T05:23:22.830Z,6.45
2023-03-26T05:24:22.801Z,6.35
2023-03-26T05:25:22.805Z,6.63
2023-03-26T05:26:22.780Z,6.31
2023-03-26T05:27:22.766Z,6.35
2023-03-26T05:28:22.780Z,6.31
2023-03-26T05:29:22.747Z,6.38
2023-03-26T05:30:22.774Z,6.41
2023-03-26T05:31:22.772Z,6.35
2023-03-26T05:32:22.711Z,6.39
2023-03-26T05:33:22.776Z,6.38
2023-03-26T05:34:22.664Z,6.42
2023-03-26T05:35:22.690Z,6.35
2023-03-26T05:36:25.679Z,6.39
2023-03-26T05:37:25.655Z,6.41
2023-03-26T05:38:22.641Z,6.41
2023-03-26T05:39:22.602Z,6.46
2023-03-26T05:40:22.591Z,6.33
2023-03-26T05:41:22.581Z,6.45
2023-03-26T05:42:22.605Z,6.33
2023-03-26T05:43:22.571Z,6.35
2023-03-26T05:44:22.541Z,6.38
2023-03-26T05:45:22.561Z,6.46
2023-03-26T05:46:22.529Z,6.46
2023-03-26T05:47:22.594Z,6.46
2023-03-26T05:48:22.495Z,6.48
2023-03-26T05:49:22.488Z,6.48
2023-03-26T05:50:22.454Z,6.44
2023-03-26T05:51:22.453Z,6.45
2023-03-26T05:52:22.426Z,6.45
2023-03-26T05:53:22.477Z,6.45
2023-03-26T05:54:22.402Z,6.39
2023-03-26T05:55:22.411Z,6.38
2023-03-26T05:56:25.385Z,6.35
2023-03-26T05:57:25.399Z,6.38
2023-03-26T05:58:22.354Z,6.36
2023-03-26T05:59:22.333Z,6.39
2023-03-26T06:00:22.325Z,6.39
2023-03-26T06:01:22.310Z,6.42
2023-03-26T06:02:22.319Z,6.42
2023-03-26T06:03:22.435Z,6.39
2023-03-26T06:04:22.328Z,6.44
2023-03-26T06:05:22.294Z,6.46
2023-03-26T06:06:22.251Z,6.45
2023-03-26T06:07:22.231Z,6.45
2023-03-26T06:08:22.239Z,6.46
2023-03-26T06:09:22.239Z,6.56
2023-03-26T06:10:22.191Z,6.51
2023-03-26T06:11:22.207Z,6.48
2023-03-26T06:12:22.148Z,6.56
2023-03-26T06:13:22.154Z,6.57
2023-03-26T06:14:22.207Z,6.57
2023-03-26T06:15:22.123Z,6.59
2023-03-26T06:16:27.097Z,6.60
2023-03-26T06:17:25.117Z,6.63
2023-03-26T06:18:22.118Z,6.64
2023-03-26T06:19:22.095Z,6.62
2023-03-26T06:20:22.075Z,6.60
2023-03-26T06:21:22.046Z,6.62
2023-03-26T06:22:22.021Z,6.63
2023-03-26T06:23:22.014Z,6.63
2023-03-26T06:24:22.075Z,6.64
2023-03-26T06:25:21.977Z,6.67
2023-03-26T06:26:21.977Z,6.67
2023-03-26T06:27:21.957Z,6.67
2023-03-26T06:28:21.951Z,6.57
2023-03-26T06:29:21.931Z,6.63
2023-03-26T06:30:22.018Z,6.60
2023-03-26T06:31:21.977Z,6.59
2023-03-26T06:32:21.942Z,6.66
2023-03-26T06:33:24.415Z,6.67
2023-03-26T06:34:21.877Z,6.67
2023-03-26T06:35:21.853Z,6.64
2023-03-26T06:36:24.868Z,6.75
2023-03-26T06:37:24.829Z,6.74
2023-03-26T06:38:21.828Z,6.69
2023-03-26T06:39:21.792Z,6.66
2023-03-26T06:40:21.841Z,6.62
2023-03-26T06:41:21.800Z,6.69
2023-03-26T06:42:21.753Z,6.72
2023-03-26T06:43:22.752Z,6.74
2023-03-26T06:44:21.753Z,6.74
2023-03-26T06:45:21.750Z,6.77
2023-03-26T06:46:21.785Z,6.79
2023-03-26T06:47:21.697Z,6.84
2023-03-26T06:48:21.683Z,6.84
2023-03-26T06:49:21.660Z,6.81
2023-03-26T06:50:21.712Z,6.64
2023-03-26T06:51:21.655Z,6.67
2023-03-26T06:52:21.621Z,6.70
2023-03-26T06:53:21.628Z,6.70
2023-03-26T06:54:21.606Z,6.70
2023-03-26T06:55:21.581Z,6.74
2023-03-26T06:56:24.593Z,6.72
2023-03-26T06:57:24.563Z,6.70
2023-03-26T06:58:21.558Z,6.63
2023-03-26T06:59:21.538Z,6.64
2023-03-26T07:00:21.535Z,6.64
2023-03-26T07:01:21.543Z,6.64
2023-03-26T07:02:21.532Z,6.67
2023-03-26T07:03:21.493Z,6.66
2023-03-26T07:04:21.575Z,6.69
2023-03-26T07:05:21.515Z,6.78
2023-03-26T07:06:21.458Z,6.82
2023-03-26T07:07:21.414Z,6.85
2023-03-26T07:08:21.425Z,6.78
2023-03-26T07:09:21.394Z,6.84
2023-03-26T07:10:21.397Z,6.82
2023-03-26T07:11:21.423Z,6.79
2023-03-26T07:12:21.367Z,6.79
2023-03-26T07:13:21.344Z,6.85
2023-03-26T07:14:21.349Z,6.78
2023-03-26T07:15:21.328Z,6.82
2023-03-26T07:16:24.417Z,6.72
2023-03-26T07:17:24.331Z,6.67
2023-03-26T07:18:21.329Z,6.75
2023-03-26T07:19:21.268Z,6.79
2023-03-26T07:20:21.274Z,6.78
2023-03-26T07:21:21.240Z,6.81
2023-03-26T07:22:21.263Z,6.87
2023-03-26T07:23:21.228Z,6.92
2023-03-26T07:24:21.215Z,6.88
2023-03-26T07:25:21.237Z,6.85
2023-03-26T07:26:21.180Z,6.85
2023-03-26T07:27:21.159Z,6.92
2023-03-26T07:28:21.162Z,6.92
2023-03-26T07:29:21.139Z,6.96
2023-03-26T07:30:21.120Z,6.97
2023-03-26T07:31:21.205Z,6.99
2023-03-26T07:32:21.202Z,6.99
2023-03-26T07:33:21.201Z,7.00
2023-03-26T07:34:21.095Z,6.97
2023-03-26T07:35:21.083Z,6.96
2023-03-26T07:36:24.075Z,6.92
2023-03-26T07:37:24.018Z,6.89
2023-03-26T07:38:21.007Z,6.88
2023-03-26T07:39:21.014Z,6.92
2023-03-26T07:40:20.975Z,6.96
2023-03-26T07:41:20.966Z,7.00
2023-03-26T07:42:20.948Z,7.02
2023-03-26T07:43:20.946Z,7.03
2023-03-26T07:44:21.000Z,7.02
2023-03-26T07:45:20.906Z,7.02
2023-03-26T07:46:20.928Z,6.97
2023-03-26T07:47:20.881Z,6.97
2023-03-26T07:48:20.878Z,7.06
2023-03-26T07:49:20.902Z,7.07
2023-03-26T07:50:20.899Z,7.10
2023-03-26T07:51:20.851Z,7.11
2023-03-26T07:52:20.849Z,7.11
2023-03-26T07:53:20.832Z,7.17
2023-03-26T07:54:20.807Z,7.18
2023-03-26T07:55:20.803Z,7.11
2023-03-26T07:56:23.830Z,7.07
2023-03-26T07:57:23.796Z,7.15
2023-03-26T07:58:20.744Z,7.21
2023-03-26T07:59:20.732Z,7.28
2023-03-26T08:00:20.748Z,7.33
2023-03-26T08:01:20.719Z,7.42
2023-03-26T08:02:20.782Z,7.45
2023-03-26T08:03:20.819Z,7.54
2023-03-26T08:04:24.056Z,7.57
2023-03-26T08:05:21.637Z,7.63
2023-03-26T08:06:20.624Z,7.57
2023-03-26T08:07:20.608Z,7.66
2023-03-26T08:08:20.784Z,7.67
2023-03-26T08:09:20.582Z,7.61
2023-03-26T08:10:20.706Z,7.60
2023-03-26T08:11:20.576Z,7.58
2023-03-26T08:12:20.546Z,7.61
2023-03-26T08:13:20.557Z,7.67
2023-03-26T08:14:20.518Z,7.63
2023-03-26T08:15:20.498Z,7.66
2023-03-26T08:16:23.501Z,7.60
2023-03-26T08:17:23.554Z,7.58
2023-03-26T08:18:20.505Z,7.66
2023-03-26T08:19:20.466Z,7.79
2023-03-26T08:20:20.453Z,7.88
2023-03-26T08:21:20.454Z,8.01
2023-03-26T08:22:20.416Z,8.06
2023-03-26T08:23:20.416Z,8.10
2023-03-26T08:24:20.380Z,8.10
2023-03-26T08:25:20.413Z,8.12
2023-03-26T08:26:20.358Z,8.10
2023-03-26T08:27:20.340Z,8.13
2023-03-26T08:28:20.326Z,8.20
2023-03-26T08:29:20.327Z,8.28
2023-03-26T08:30:20.299Z,8.12
2023-03-26T08:31:20.339Z,7.95
2023-03-26T08:32:20.279Z,7.80
2023-03-26T08:33:20.258Z,7.77
2023-03-26T08:34:20.249Z,7.72
2023-03-26T08:35:20.284Z,7.63
2023-03-26T08:36:23.286Z,7.58
2023-03-26T08:37:23.199Z,7.60
2023-03-26T08:38:20.197Z,7.56
2023-03-26T08:39:20.188Z,7.51
2023-03-26T08:40:20.172Z,7.54
2023-03-26T08:41:20.165Z,7.54
2023-03-26T08:42:20.184Z,7.53
2023-03-26T08:43:20.137Z,7.50
2023-03-26T08:44:20.120Z,7.53
2023-03-26T08:45:20.099Z,7.53
2023-03-26T08:46:20.119Z,7.50
2023-03-26T08:47:20.066Z,7.45
2023-03-26T08:48:20.116Z,7.47
2023-03-26T08:49:20.056Z,7.56
2023-03-26T08:50:20.035Z,7.56
2023-03-26T08:51:20.016Z,7.67
2023-03-26T08:52:19.998Z,7.72
2023-03-26T08:53:19.995Z,7.77
2023-03-26T08:54:20.001Z,7.82
2023-03-26T08:55:19.958Z,7.80
2023-03-26T08:56:23.020Z,7.83
2023-03-26T08:57:22.950Z,7.95
2023-03-26T08:58:19.954Z,8.03
2023-03-26T08:59:19.917Z,8.05
2023-03-26T09:00:19.928Z,7.95
2023-03-26T09:01:19.923Z,8.03
2023-03-26T09:02:19.912Z,7.97
2023-03-26T09:03:19.851Z,8.00
2023-03-26T09:04:19.925Z,7.91
2023-03-26T09:05:19.839Z,7.87
2023-03-26T09:06:19.810Z,7.77
2023-03-26T09:07:19.794Z,7.76
2023-03-26T09:08:19.863Z,7.66
2023-03-26T09:09:19.772Z,7.75
2023-03-26T09:10:19.792Z,7.83
2023-03-26T09:11:19.739Z,7.97
2023-03-26T09:12:19.741Z,8.08
2023-03-26T09:13:19.732Z,8.19
2023-03-26T09:14:19.795Z,8.30
2023-03-26T09:15:19.689Z,8.37
2023-03-26T09:16:22.708Z,8.36
2023-03-26T09:17:22.701Z,8.28
2023-03-26T09:18:19.672Z,8.28
2023-03-26T09:19:19.638Z,8.19
2023-03-26T09:20:19.688Z,8.19
2023-03-26T09:21:19.613Z,8.16
2023-03-26T09:22:19.609Z,8.19
2023-03-26T09:23:19.606Z,8.16
2023-03-26T09:24:19.595Z,8.12
2023-03-26T09:25:19.576Z,8.03
2023-03-26T09:26:19.620Z,8.12
2023-03-26T09:27:19.544Z,8.13
2023-03-26T09:28:19.530Z,8.26
2023-03-26T09:29:19.523Z,8.28
2023-03-26T09:30:19.511Z,8.27
2023-03-26T09:31:19.535Z,8.26
2023-03-26T09:32:19.549Z,8.30
2023-03-26T09:33:19.462Z,8.28
2023-03-26T09:34:19.453Z,8.30
2023-03-26T09:35:19.479Z,8.27
2023-03-26T09:36:22.422Z,8.37
2023-03-26T09:37:22.461Z,8.51
2023-03-26T09:38:19.388Z,8.67
2023-03-26T09:39:19.370Z,8.82
2023-03-26T09:40:19.363Z,8.94
2023-03-26T09:41:19.347Z,9.04
2023-03-26T09:42:19.334Z,9.14
2023-03-26T09:43:19.375Z,9.19
2023-03-26T09:44:19.316Z,9.18
2023-03-26T09:45:19.286Z,9.16
2023-03-26T09:46:19.295Z,9.13
2023-03-26T09:47:19.286Z,9.08
2023-03-26T09:48:19.247Z,8.91
2023-03-26T09:49:19.271Z,8.87
2023-03-26T09:50:19.229Z,8.88
2023-03-26T09:51:19.215Z,8.91
2023-03-26T09:52:19.206Z,8.85
2023-03-26T09:53:19.180Z,8.89
2023-03-26T09:54:19.178Z,8.92
2023-03-26T09:55:19.218Z,8.91
2023-03-26T09:56:22.156Z,8.92
2023-03-26T09:57:22.234Z,9.10
2023-03-26T09:58:19.124Z,9.32
2023-03-26T09:59:19.093Z,9.48
2023-03-26T10:00:19.086Z,9.72
2023-03-26T10:01:19.155Z,9.72
2023-03-26T10:02:19.069Z,9.73
2023-03-26T10:03:19.073Z,9.84
2023-03-26T10:04:19.055Z,9.99
2023-03-26T10:05:19.025Z,10.12
2023-03-26T10:06:19.010Z,10.01
2023-03-26T10:07:19.059Z,9.91
2023-03-26T10:08:18.986Z,9.74
2023-03-26T10:09:18.977Z,9.83
2023-03-26T10:10:18.953Z,9.89
2023-03-26T10:11:18.950Z,9.55
2023-03-26T10:12:18.923Z,9.41
2023-03-26T10:13:18.968Z,9.29
2023-03-26T10:14:18.903Z,8.99
2023-03-26T10:15:18.894Z,8.73
2023-03-26T10:16:21.904Z,8.67
2023-03-26T10:17:21.868Z,8.56
2023-03-26T10:18:27.756Z,8.51
2023-03-26T10:19:19.888Z,8.42
2023-03-26T10:20:18.833Z,8.27
2023-03-26T10:21:18.816Z,8.16
2023-03-26T10:22:18.801Z,8.16
2023-03-26T10:23:18.914Z,8.27
2023-03-26T10:24:18.823Z,8.46
2023-03-26T10:25:18.828Z,8.71
2023-03-26T10:26:18.881Z,8.76
2023-03-26T10:27:18.726Z,8.95
2023-03-26T10:28:18.718Z,9.16
2023-03-26T10:29:18.705Z,9.41
2023-03-26T10:30:18.702Z,9.50
2023-03-26T10:31:18.768Z,9.55
2023-03-26T10:32:18.684Z,9.79
2023-03-26T10:33:18.646Z,10.02
2023-03-26T10:34:28.107Z,10.23
2023-03-26T10:35:19.670Z,10.53
2023-03-26T10:36:21.642Z,10.71
2023-03-26T10:37:21.597Z,10.74
2023-03-26T10:38:18.604Z,10.76
2023-03-26T10:39:37.062Z,10.78
2023-03-26T10:40:19.560Z,10.23
2023-03-26T10:41:18.575Z,9.80
2023-03-26T10:42:18.565Z,9.39
2023-03-26T10:43:18.514Z,9.18
2023-03-26T10:44:18.512Z,8.84
2023-03-26T10:45:18.497Z,8.70
2023-03-26T10:46:18.557Z,8.60
2023-03-26T10:47:18.496Z,8.52
2023-03-26T10:48:18.455Z,8.48
2023-03-26T10:49:18.457Z,8.41
2023-03-26T10:50:23.087Z,8.46
2023-03-26T10:51:19.453Z,8.61
2023-03-26T10:52:18.426Z,8.82
2023-03-26T10:53:18.381Z,9.06
2023-03-26T10:54:18.389Z,9.28
2023-03-26T10:55:18.388Z,9.48
2023-03-26T10:56:21.380Z,9.73
2023-03-26T10:57:21.342Z,9.98
2023-03-26T10:58:18.351Z,10.17
2023-03-26T10:59:18.327Z,10.05
2023-03-26T11:00:18.300Z,9.87
2023-03-26T11:01:18.315Z,9.92
2023-03-26T11:02:18.262Z,10.05
2023-03-26T11:03:18.298Z,10.23
2023-03-26T11:04:18.254Z,10.40
2023-03-26T11:05:18.247Z,10.46
2023-03-26T11:06:18.218Z,10.48
2023-03-26T11:07:18.212Z,10.40
2023-03-26T11:08:18.187Z,10.23
2023-03-26T11:09:18.191Z,10.16
2023-03-26T11:10:18.152Z,10.12
2023-03-26T11:11:18.143Z,10.04
2023-03-26T11:12:25.756Z,10.12
2023-03-26T11:13:19.161Z,10.19
2023-03-26T11:14:27.968Z,9.98
2023-03-26T11:15:19.090Z,9.91
2023-03-26T11:16:21.186Z,9.89
2023-03-26T11:17:40.963Z,9.91
2023-03-26T11:18:19.089Z,9.76
2023-03-26T11:19:18.062Z,9.68
2023-03-26T11:20:18.018Z,9.44
2023-03-26T11:21:20.444Z,9.25
2023-03-26T11:22:17.979Z,9.22
2023-03-26T11:23:18.011Z,9.14
2023-03-26T11:24:17.954Z,9.19
2023-03-26T11:25:17.968Z,9.19
2023-03-26T11:26:17.957Z,9.04
2023-03-26T11:27:19.721Z,9.11
2023-03-26T11:28:17.911Z,9.16
2023-03-26T11:29:31.143Z,9.13
2023-03-26T11:30:18.912Z,9.06
2023-03-26T11:31:17.949Z,8.97
2023-03-26T11:32:17.871Z,8.97
2023-03-26T11:33:17.844Z,8.92
2023-03-26T11:34:17.841Z,8.95
2023-03-26T11:35:17.822Z,8.94
2023-03-26T11:36:21.902Z,8.70
2023-03-26T11:37:20.796Z,8.73
2023-03-26T11:38:17.793Z,8.85
2023-03-26T11:39:17.768Z,9.10
2023-03-26T11:40:17.773Z,9.32
2023-03-26T11:41:22.701Z,9.48
2023-03-26T11:42:18.727Z,9.66
2023-03-26T11:43:17.719Z,9.80
2023-03-26T11:44:17.731Z,9.91
2023-03-26T11:45:17.751Z,10.12
2023-03-26T11:46:17.704Z,10.07
2023-03-26T11:47:17.665Z,10.30
2023-03-26T11:48:17.689Z,10.54
2023-03-26T11:49:17.642Z,10.74
2023-03-26T11:50:17.622Z,10.89
2023-03-26T11:51:17.674Z,11.10
2023-03-26T11:52:17.606Z,11.27
2023-03-26T11:53:17.591Z,11.43
2023-03-26T11:54:17.574Z,11.08
2023-03-26T11:55:17.563Z,10.54
2023-03-26T11:56:20.566Z,10.28
2023-03-26T11:57:20.565Z,9.94
2023-03-26T11:58:17.506Z,9.79
2023-03-26T11:59:18.776Z,9.76
2023-03-26T12:00:17.482Z,9.69
2023-03-26T12:01:17.491Z,9.64
2023-03-26T12:02:17.483Z,9.44
2023-03-26T12:03:17.460Z,9.40
2023-03-26T12:04:17.436Z,9.37
2023-03-26T12:05:17.400Z,9.46
2023-03-26T12:06:17.408Z,9.55
2023-03-26T12:07:17.395Z,9.68
2023-03-26T12:08:17.377Z,9.74
2023-03-26T12:09:17.354Z,9.82
2023-03-26T12:10:19.201Z,9.95
2023-03-26T12:11:17.328Z,10.12
2023-03-26T12:12:17.305Z,10.25
2023-03-26T12:13:17.340Z,10.37
2023-03-26T12:14:17.278Z,10.54
2023-03-26T12:15:17.255Z,10.59
2023-03-26T12:16:20.271Z,10.41
2023-03-26T12:17:20.231Z,10.09
2023-03-26T12:18:18.261Z,9.83
2023-03-26T12:19:17.204Z,9.66
2023-03-26T12:20:17.183Z,9.66
2023-03-26T12:21:17.175Z,9.77
2023-03-26T12:22:17.175Z,9.87
2023-03-26T12:23:17.139Z,9.92
2023-03-26T12:24:17.164Z,10.01
2023-03-26T12:25:17.140Z,10.22
2023-03-26T12:26:17.099Z,10.25
2023-03-26T12:27:17.088Z,10.33
2023-03-26T12:28:17.119Z,10.23
2023-03-26T12:29:17.112Z,10.15
2023-03-26T12:30:17.035Z,10.16
2023-03-26T12:31:17.100Z,10.17
2023-03-26T12:32:17.032Z,10.04
2023-03-26T12:33:17.048Z,10.02
2023-03-26T12:34:17.026Z,10.15
2023-03-26T12:35:16.991Z,10.42
2023-03-26T12:36:19.961Z,10.67
2023-03-26T12:37:19.956Z,10.75
2023-03-26T12:38:16.975Z,10.68
2023-03-26T12:40:07.471Z,10.35
2023-03-26T12:40:21.699Z,10.30
2023-03-26T12:44:42.959Z,10.35
2023-03-26T12:44:44.495Z,10.30
2023-03-26T12:44:48.007Z,10.31
2023-03-26T12:44:48.306Z,10.34
2023-03-26T12:45:17.869Z,10.41
2023-03-26T12:47:56.447Z,10.17
2023-03-26T12:47:56.875Z,10.33
2023-03-26T12:48:17.849Z,10.12
2023-03-26T12:49:16.888Z,9.98
2023-03-26T12:50:16.814Z,9.79
2023-03-26T12:51:16.757Z,9.84
2023-03-26T12:52:16.739Z,9.91
2023-03-26T12:53:16.726Z,10.12
2023-03-26T12:54:16.719Z,10.28
2023-03-26T12:55:16.742Z,10.38
2023-03-26T12:56:19.731Z,10.41
2023-03-26T12:57:19.748Z,10.61
2023-03-26T12:58:16.657Z,10.84
2023-03-26T12:59:16.638Z,10.97
2023-03-26T13:00:16.631Z,11.14
2023-03-26T13:01:16.671Z,11.12
2023-03-26T13:02:16.622Z,11.12
2023-03-26T13:03:16.689Z,11.15
2023-03-26T13:04:16.594Z,11.02
2023-03-26T13:05:16.574Z,11.04
2023-03-26T13:06:16.582Z,10.87
2023-03-26T13:07:16.556Z,10.67
2023-03-26T13:08:16.553Z,10.60
2023-03-26T13:09:16.511Z,10.44
2023-03-26T13:10:16.492Z,10.28
2023-03-26T13:11:16.479Z,10.25
2023-03-26T13:12:16.470Z,10.41
2023-03-26T13:13:16.500Z,10.41
2023-03-26T13:14:16.441Z,10.16
2023-03-26T13:15:16.433Z,9.83